Time;durP1;ratioP1;P1;durP2;ratioP2;P2;SDS_P1;SDS_P2;PMS_P1;PMS_P2;Temp;Humidity;BMP_temperature;BMP_pressure;BME280_temperature;BME280_humidity;BME280_pressure;Samples;Min_cycle;Max_cycle;Signal;HPM_P1;HPM_P2
2021/05/16 00:00:11;;;;;;;2.10;1.70;;;;;;;10.35;100.00;99287.83;633239;225;24900;-80
2021/05/16 00:02:39;;;;;;;2.30;1.57;;;;;;;10.38;100.00;99286.69;635585;225;24919;-80
2021/05/16 00:05:07;;;;;;;2.17;1.30;;;;;;;10.18;100.00;99286.71;635324;225;24871;-80
2021/05/16 00:07:35;;;;;;;3.45;1.70;;;;;;;10.42;100.00;99281.49;631399;225;43543;-79
2021/05/16 00:10:04;;;;;;;1.33;1.23;;;;;;;10.31;100.00;99285.25;637232;224;23785;-80
2021/05/16 00:12:33;;;;;;;1.70;1.17;;;;;;;10.35;100.00;99288.33;626262;226;23856;-79
2021/05/16 00:15:01;;;;;;;3.00;1.10;;;;;;;10.21;100.00;99285.92;640796;223;24854;-80
2021/05/16 00:17:29;;;;;;;2.00;1.30;;;;;;;10.33;100.00;99283.78;641188;224;24852;-81
2021/05/16 00:19:57;;;;;;;4.17;1.40;;;;;;;10.26;100.00;99291.91;638999;224;24880;-79
2021/05/16 00:22:25;;;;;;;2.47;1.10;;;;;;;10.51;100.00;99285.67;620908;225;32697;-81
2021/05/16 00:24:53;;;;;;;2.70;1.30;;;;;;;10.38;100.00;99298.38;625341;229;23706;-80
2021/05/16 00:27:21;;;;;;;4.43;1.30;;;;;;;10.38;100.00;99287.98;627658;228;24837;-80
2021/05/16 00:29:50;;;;;;;2.73;1.03;;;;;;;10.40;100.00;99286.83;626248;227;24885;-80
2021/05/16 00:32:17;;;;;;;2.20;1.27;;;;;;;10.47;100.00;99291.38;624751;226;25965;-81
2021/05/16 00:34:45;;;;;;;6.83;1.30;;;;;;;10.49;100.00;99295.43;626578;227;24889;-80
2021/05/16 00:37:13;;;;;;;3.07;1.10;;;;;;;10.44;100.00;99300.33;639911;224;24795;-81
2021/05/16 00:39:41;;;;;;;5.90;1.30;;;;;;;10.49;100.00;99297.22;643631;223;24838;-81
2021/05/16 00:42:09;;;;;;;1.40;1.00;;;;;;;10.58;100.00;99284.04;635408;223;24891;-80
2021/05/16 00:44:37;;;;;;;1.47;1.20;;;;;;;10.58;100.00;99291.84;621903;229;24927;-80
2021/05/16 00:47:05;;;;;;;1.10;1.00;;;;;;;10.48;100.00;99276.10;626757;229;29118;-79
2021/05/16 00:49:33;;;;;;;2.40;0.90;;;;;;;10.45;100.00;99281.64;626723;229;24925;-80
2021/05/16 00:52:01;;;;;;;2.90;1.10;;;;;;;10.79;100.00;99277.44;623275;224;32887;-79
2021/05/16 00:54:30;;;;;;;1.37;1.17;;;;;;;10.50;100.00;99273.66;642572;223;23851;-80
2021/05/16 00:56:58;;;;;;;2.83;0.90;;;;;;;10.54;100.00;99272.33;623272;229;24952;-81
2021/05/16 00:59:26;;;;;;;2.80;1.13;;;;;;;10.57;100.00;99276.41;628489;225;28107;-81
2021/05/16 01:01:55;;;;;;;1.57;1.37;;;;;;;10.51;100.00;99272.67;637411;220;23813;-80
2021/05/16 01:04:23;;;;;;;1.20;1.00;;;;;;;10.51;100.00;99270.56;626342;229;24845;-80
2021/05/16 01:06:50;;;;;;;1.07;0.90;;;;;;;10.49;100.00;99268.13;617221;229;23940;-81
2021/05/16 01:09:19;;;;;;;2.10;1.17;;;;;;;10.46;100.00;99267.66;631763;226;24862;-80
2021/05/16 01:11:47;;;;;;;2.30;0.90;;;;;;;10.41;100.00;99261.65;626013;225;24827;-81
2021/05/16 01:14:21;;;;;;;1.37;1.07;;;;;;;10.39;100.00;99269.62;627827;228;24973;-80
2021/05/16 01:16:43;;;;;;;1.33;1.10;;;;;;;10.38;100.00;99272.39;625374;229;25183;-79
2021/05/16 01:19:11;;;;;;;2.90;1.47;;;;;;;10.42;100.00;99259.89;637960;225;24819;-81
2021/05/16 01:21:40;;;;;;;2.07;1.50;;;;;;;10.45;100.00;99263.45;639784;223;24852;-81
2021/05/16 01:24:16;;;;;;;2.23;1.30;;;;;;;10.49;100.00;99264.73;638750;224;24837;-80
2021/05/16 01:26:45;;;;;;;3.07;1.47;;;;;;;10.41;100.00;99257.75;640383;224;24850;-81
2021/05/16 01:29:13;;;;;;;1.93;1.23;;;;;;;10.46;100.00;99255.97;634654;224;24885;-78
2021/05/16 01:31:41;;;;;;;5.33;1.10;;;;;;;10.47;100.00;99257.59;638644;224;24839;-79
2021/05/16 01:34:09;;;;;;;4.03;1.70;;;;;;;10.65;100.00;99259.45;632892;224;24871;-80
2021/05/16 01:36:37;;;;;;;2.53;1.60;;;;;;;10.54;100.00;99263.23;627953;228;24976;-80
2021/05/16 01:39:06;;;;;;;4.13;1.60;;;;;;;10.54;100.00;99259.82;626477;227;24868;-80
2021/05/16 01:41:34;;;;;;;6.23;1.77;;;;;;;10.37;100.00;99274.17;625101;226;24909;-79
2021/05/16 01:44:02;;;;;;;1.40;1.30;;;;;;;10.40;100.00;99264.73;626833;229;24830;-80
2021/05/16 01:46:31;;;;;;;4.67;1.60;;;;;;;10.82;100.00;99268.80;623615;226;33258;-80
2021/05/16 01:48:59;;;;;;;6.03;2.00;;;;;;;10.69;100.00;99267.23;628148;225;23743;-79
2021/05/16 01:51:26;;;;;;;3.83;1.60;;;;;;;10.51;100.00;99268.77;627846;226;24838;-79
2021/05/16 01:53:55;;;;;;;2.90;1.60;;;;;;;10.74;100.00;99270.65;642309;223;24880;-78
2021/05/16 01:56:23;;;;;;;2.97;1.67;;;;;;;10.70;100.00;99269.69;641404;223;28106;-79
2021/05/16 01:58:51;;;;;;;5.30;2.03;;;;;;;10.67;100.00;99263.50;641093;224;24860;-80
2021/05/16 02:01:19;;;;;;;4.60;1.50;;;;;;;10.68;100.00;99261.22;640736;220;25177;-78
2021/05/16 02:03:47;;;;;;;5.40;2.10;;;;;;;10.61;100.00;99254.28;640200;224;24808;-80
2021/05/16 02:06:15;;;;;;;6.43;2.10;;;;;;;10.60;100.00;99263.06;627050;229;24906;-80
2021/05/16 02:08:43;;;;;;;2.90;1.50;;;;;;;10.56;100.00;99273.49;626780;229;24852;-81
2021/05/16 02:11:11;;;;;;;4.83;2.10;;;;;;;10.49;100.00;99268.13;638885;221;25910;-79
2021/05/16 02:13:39;;;;;;;7.87;2.67;;;;;;;10.53;100.00;99256.41;627212;228;24844;-79
2021/05/16 02:16:07;;;;;;;2.30;1.70;;;;;;;10.31;100.00;99260.56;628146;228;24852;-79
2021/05/16 02:18:35;;;;;;;5.33;2.10;;;;;;;10.44;100.00;99255.33;625758;229;23868;-80
2021/05/16 02:21:03;;;;;;;7.70;2.80;;;;;;;10.49;100.00;99255.14;638011;224;24875;-80
2021/05/16 02:23:31;;;;;;;4.87;1.93;;;;;;;10.51;100.00;99256.27;639456;224;24801;-80
2021/05/16 02:25:59;;;;;;;3.13;2.03;;;;;;;10.46;100.00;99252.07;637976;225;24883;-80
2021/05/16 02:28:27;;;;;;;6.72;2.40;;;;;;;10.75;100.00;99252.27;633061;224;32961;-78
2021/05/16 02:30:55;;;;;;;5.03;2.00;;;;;;;10.97;100.00;99255.88;632647;224;43480;-79
2021/05/16 02:33:23;;;;;;;12.33;2.47;;;;;;;10.73;100.00;99259.92;621025;229;23758;-78
2021/05/16 02:35:51;;;;;;;6.10;1.93;;;;;;;10.76;100.00;99254.37;637968;225;24795;-79
2021/05/16 02:38:18;;;;;;;3.87;1.80;;;;;;;10.68;100.00;99250.82;625789;229;24899;-80
2021/05/16 02:40:47;;;;;;;5.35;2.05;;;;;;;10.89;100.00;99249.44;621079;228;32967;-79
2021/05/16 02:43:15;;;;;;;4.07;2.10;;;;;;;10.85;100.00;99242.47;636430;225;23684;-79
2021/05/16 02:45:42;;;;;;;4.30;1.53;;;;;;;10.60;100.00;99245.67;626109;229;24845;-80
2021/05/16 02:48:10;;;;;;;4.00;1.80;;;;;;;10.59;100.00;99245.36;624566;229;24887;-79
2021/05/16 02:50:38;;;;;;;4.43;1.83;;;;;;;10.54;100.00;99241.13;628495;225;24882;-80
2021/05/16 02:53:06;;;;;;;5.20;1.73;;;;;;;10.44;100.00;99245.74;638215;225;24785;-78
2021/05/16 02:55:34;;;;;;;2.63;1.90;;;;;;;10.62;100.00;99248.10;621784;229;27102;-79
2021/05/16 02:58:02;;;;;;;4.40;1.80;;;;;;;10.69;100.00;99242.53;624197;228;24863;-79
2021/05/16 03:00:30;;;;;;;5.40;2.20;;;;;;;10.80;100.00;99243.45;634206;224;32584;-80
2021/05/16 03:02:58;;;;;;;4.00;2.00;;;;;;;10.93;100.00;99237.70;623054;224;32851;-79
2021/05/16 03:05:29;;;;;;;7.05;2.40;;;;;;;10.95;100.00;99238.34;621360;229;32824;-80
2021/05/16 03:07:56;;;;;;;5.07;2.30;;;;;;;10.93;100.00;99242.91;640760;224;23713;-79
2021/05/16 03:10:24;;;;;;;5.57;2.33;;;;;;;10.86;100.00;99248.00;626019;229;24837;-80
2021/05/16 03:12:52;;;;;;;4.90;2.30;;;;;;;10.63;100.00;99247.93;638287;219;24891;-79
2021/05/16 03:15:20;;;;;;;6.50;2.33;;;;;;;10.92;100.00;99243.89;618169;227;33003;-80
2021/05/16 03:17:48;;;;;;;7.10;3.00;;;;;;;10.59;100.00;99249.26;627219;228;24888;-79
2021/05/16 03:20:16;;;;;;;4.93;1.90;;;;;;;10.46;100.00;99250.77;641637;223;24812;-80
2021/05/16 03:22:44;;;;;;;12.33;2.50;;;;;;;10.53;100.00;99245.20;625374;225;24856;-79
2021/05/16 03:25:13;;;;;;;4.50;2.23;;;;;;;10.43;100.00;99245.42;625563;229;31285;-80
2021/05/16 03:27:41;;;;;;;5.80;1.80;;;;;;;10.37;100.00;99247.37;627443;227;24925;-80
2021/05/16 03:30:10;;;;;;;5.87;2.13;;;;;;;10.45;100.00;99249.96;622217;228;24868;-80
2021/05/16 03:32:40;;;;;;;7.37;2.40;;;;;;;10.84;100.00;99242.62;634111;223;32683;-81
2021/05/16 03:35:07;;;;;;;9.13;2.03;;;;;;;10.67;100.00;99250.50;639788;224;23734;-80
2021/05/16 03:37:35;;;;;;;4.73;1.90;;;;;;;10.52;100.00;99247.00;625633;228;25163;-81
2021/05/16 03:40:03;;;;;;;7.53;2.40;;;;;;;10.86;100.00;99243.28;621319;229;32715;-80
2021/05/16 03:42:31;;;;;;;7.23;2.47;;;;;;;10.68;100.00;99242.21;626038;225;24818;-81
2021/05/16 03:44:59;;;;;;;3.63;2.13;;;;;;;10.77;100.00;99245.59;626397;228;24881;-81
2021/05/16 03:47:27;;;;;;;8.37;2.07;;;;;;;10.54;100.00;99242.92;639123;224;24841;-80
2021/05/16 03:49:55;;;;;;;5.97;3.13;;;;;;;10.50;100.00;99246.36;626298;229;24831;-80
2021/05/16 03:52:29;;;;;;;4.57;2.50;;;;;;;10.57;100.00;99249.11;626708;229;24843;-80
2021/05/16 03:54:57;;;;;;;3.40;2.13;;;;;;;10.56;100.00;99244.40;639323;225;27028;-80
2021/05/16 03:57:25;;;;;;;8.57;2.40;;;;;;;10.70;100.00;99247.59;637348;225;24839;-80
2021/05/16 03:59:53;;;;;;;6.90;2.53;;;;;;;10.70;100.00;99239.78;624931;229;24875;-79
2021/05/16 04:02:21;;;;;;;4.13;2.67;;;;;;;10.77;100.00;99248.20;625792;225;24838;-80
2021/05/16 04:04:49;;;;;;;6.37;2.67;;;;;;;10.82;100.00;99244.58;626710;229;24873;-80
2021/05/16 04:07:17;;;;;;;8.57;2.10;;;;;;;10.57;100.00;99246.02;625957;229;24876;-80
2021/05/16 04:09:45;;;;;;;4.77;2.67;;;;;;;10.76;100.00;99243.98;628071;227;24932;-80
2021/05/16 04:12:13;;;;;;;5.70;2.63;;;;;;;10.80;100.00;99250.45;631174;224;24904;-80
2021/05/16 04:14:42;;;;;;;4.90;2.30;;;;;;;10.85;100.00;99238.58;628021;227;24906;-80
2021/05/16 04:17:09;;;;;;;3.40;2.30;;;;;;;10.82;100.00;99236.78;624691;228;24880;-80
2021/05/16 04:19:37;;;;;;;4.33;2.40;;;;;;;10.76;100.00;99242.67;628579;226;24893;-80
2021/05/16 04:22:05;;;;;;;6.73;2.80;;;;;;;10.79;100.00;99247.04;627666;225;24881;-80
2021/05/16 04:24:33;;;;;;;6.37;2.53;;;;;;;10.64;100.00;99245.65;627808;229;24908;-79
2021/05/16 04:27:01;;;;;;;6.90;2.90;;;;;;;10.82;100.00;99247.99;640272;224;25086;-79
2021/05/16 04:29:29;;;;;;;4.33;2.77;;;;;;;11.14;100.00;99247.02;634719;224;32591;-80
2021/05/16 04:31:57;;;;;;;4.97;2.90;;;;;;;10.87;100.00;99244.90;635192;223;24919;-80
2021/05/16 04:34:25;;;;;;;6.20;3.73;;;;;;;10.79;100.00;99240.53;638542;225;24870;-80
2021/05/16 04:36:53;;;;;;;6.93;2.90;;;;;;;10.87;100.00;99244.41;625419;229;24858;-80
2021/05/16 04:39:21;;;;;;;7.83;2.77;;;;;;;10.68;100.00;99245.63;626332;229;24799;-80
2021/05/16 04:41:49;;;;;;;4.70;2.70;;;;;;;10.72;100.00;99244.81;621187;228;28102;-80
2021/05/16 04:44:17;;;;;;;7.40;3.00;;;;;;;10.78;100.00;99245.91;635103;225;24911;-81
2021/05/16 04:46:45;;;;;;;10.70;2.40;;;;;;;10.83;100.00;99248.31;631215;225;28028;-81
2021/05/16 04:49:14;;;;;;;10.33;2.77;;;;;;;10.98;100.00;99247.93;623414;229;26021;-80
2021/05/16 04:51:41;;;;;;;9.20;2.77;;;;;;;11.11;100.00;99249.94;636991;221;23867;-81
2021/05/16 04:54:09;;;;;;;3.07;2.30;;;;;;;11.10;100.00;99254.83;630126;225;24871;-80
2021/05/16 04:56:37;;;;;;;6.13;3.10;;;;;;;11.34;100.00;99248.66;628830;225;32833;-80
2021/05/16 04:59:05;;;;;;;6.00;2.63;;;;;;;11.22;100.00;99249.55;632435;225;25137;-80
2021/05/16 05:01:33;;;;;;;5.37;2.67;;;;;;;11.20;100.00;99248.92;632106;222;25091;-80
2021/05/16 05:04:03;;;;;;;6.67;2.70;;;;;;;11.37;100.00;99253.52;629525;225;32855;-80
2021/05/16 05:06:31;;;;;;;7.87;2.40;;;;;;;11.04;100.00;99254.23;634792;225;23778;-80
2021/05/16 05:08:59;;;;;;;6.23;2.87;;;;;;;11.16;100.00;99252.05;635552;225;24872;-82
2021/05/16 05:11:27;;;;;;;5.00;2.30;;;;;;;10.89;100.00;99255.45;624991;225;24869;-81
2021/05/16 05:13:55;;;;;;;9.13;2.57;;;;;;;10.91;100.00;99261.78;627401;228;24911;-80
2021/05/16 05:16:23;;;;;;;5.90;4.20;;;;;;;10.98;100.00;99264.84;637899;224;24795;-80
2021/05/16 05:18:51;;;;;;;4.60;3.70;;;;;;;10.92;100.00;99262.09;624965;229;30310;-80
2021/05/16 05:21:19;;;;;;;5.37;2.73;;;;;;;10.88;100.00;99257.73;626452;225;24868;-80
2021/05/16 05:23:47;;;;;;;9.40;5.63;;;;;;;10.95;100.00;99261.75;626268;228;24928;-80
2021/05/16 05:26:16;;;;;;;6.37;3.10;;;;;;;11.14;100.00;99258.73;639751;223;24849;-80
2021/05/16 05:28:44;;;;;;;10.37;9.27;;;;;;;11.18;100.00;99251.38;641791;223;24834;-80
2021/05/16 05:31:12;;;;;;;31.17;19.57;;;;;;;11.13;100.00;99251.09;625086;228;24915;-80
2021/05/16 05:33:40;;;;;;;33.63;26.40;;;;;;;11.25;100.00;99253.09;636580;225;24880;-80
2021/05/16 05:36:08;;;;;;;45.30;30.00;;;;;;;11.49;100.00;99257.33;631362;225;27061;-81
2021/05/16 05:38:38;;;;;;;6.53;3.73;;;;;;;11.36;100.00;99258.41;629815;225;24909;-80
2021/05/16 05:41:06;;;;;;;5.63;2.70;;;;;;;11.38;100.00;99270.75;636768;222;24925;-80
2021/05/16 05:43:35;;;;;;;5.80;2.60;;;;;;;11.62;100.00;99269.77;635347;225;24851;-80
2021/05/16 05:46:03;;;;;;;7.27;2.23;;;;;;;11.57;100.00;99273.40;634525;225;24856;-79
2021/05/16 05:48:31;;;;;;;4.97;2.20;;;;;;;11.42;100.00;99271.23;637647;225;24894;-80
2021/05/16 05:50:59;;;;;;;7.97;2.20;;;;;;;11.55;100.00;99262.35;638852;220;24827;-79
2021/05/16 05:53:27;;;;;;;6.00;2.07;;;;;;;11.79;100.00;99253.04;625869;229;24830;-80
2021/05/16 05:55:55;;;;;;;9.50;2.00;;;;;;;11.62;100.00;99254.14;639717;223;24842;-80
2021/05/16 05:58:23;;;;;;;6.57;2.20;;;;;;;11.72;100.00;99259.12;639594;224;24791;-80
2021/05/16 06:00:57;;;;;;;2.40;1.80;;;;;;;12.01;100.00;99263.61;626518;225;24801;-80
2021/05/16 06:03:25;;;;;;;3.73;1.93;;;;;;;12.13;100.00;99259.58;629441;227;23920;-80
2021/05/16 06:05:53;;;;;;;4.80;1.77;;;;;;;12.14;100.00;99264.61;637945;225;25977;-80
2021/05/16 06:08:21;;;;;;;5.07;1.80;;;;;;;12.07;100.00;99262.88;625602;229;24955;-81
2021/05/16 06:10:50;;;;;;;3.40;1.90;;;;;;;12.26;100.00;99259.77;627682;226;23931;-80
2021/05/16 06:13:18;;;;;;;5.73;1.83;;;;;;;12.51;100.00;99263.38;641794;223;24866;-80
2021/05/16 06:15:46;;;;;;;3.00;1.50;;;;;;;12.28;100.00;99260.89;640864;224;23852;-80
2021/05/16 06:18:14;;;;;;;4.47;1.70;;;;;;;12.42;100.00;99262.19;639849;224;24866;-80
2021/05/16 06:20:42;;;;;;;5.90;2.10;;;;;;;12.34;100.00;99270.09;639579;221;24871;-80
2021/05/16 06:23:13;;;;;;;4.77;1.77;;;;;;;12.37;100.00;99270.22;633112;225;23863;-80
2021/05/16 06:25:39;;;;;;;5.40;1.90;;;;;;;12.34;100.00;99264.07;624640;229;24838;-79
2021/05/16 06:28:07;;;;;;;7.83;1.77;;;;;;;12.34;100.00;99260.97;622769;226;24955;-79
2021/05/16 06:30:35;;;;;;;8.17;2.20;;;;;;;12.30;100.00;99270.14;622640;229;24980;-80
2021/05/16 06:33:03;;;;;;;5.27;1.83;;;;;;;12.45;100.00;99270.14;638591;221;23937;-79
2021/05/16 06:35:31;;;;;;;4.80;1.93;;;;;;;12.25;100.00;99265.97;641094;223;24834;-79
2021/05/16 06:37:59;;;;;;;6.70;2.03;;;;;;;12.56;100.00;99267.59;634333;223;32841;-79
2021/05/16 06:40:37;;;;;;;;;;;;;;;;;;;;;
2021/05/16 06:43:05;;;;;;;5.70;2.23;;;;;;;12.32;100.00;99268.16;642993;213;25516;-78
2021/05/16 06:45:33;;;;;;;6.13;1.83;;;;;;;12.58;100.00;99264.30;632455;224;24885;-79
2021/05/16 06:48:01;;;;;;;3.37;1.47;;;;;;;12.70;100.00;99265.45;629290;225;23894;-79
2021/05/16 06:50:29;;;;;;;4.93;1.83;;;;;;;13.24;98.45;99263.78;636416;221;33100;-79
2021/05/16 06:52:57;;;;;;;5.60;2.10;;;;;;;13.10;98.32;99267.22;640685;221;24831;-78
2021/05/16 06:55:25;;;;;;;6.60;2.30;;;;;;;12.84;98.66;99267.23;630119;225;24857;-79
2021/05/16 06:57:53;;;;;;;2.77;1.50;;;;;;;13.00;98.97;99276.64;646717;220;24881;-78
2021/05/16 07:00:23;;;;;;;5.70;1.93;;;;;;;12.58;100.00;99269.02;632736;226;24908;-79
2021/05/16 07:02:51;;;;;;;4.87;1.72;;;;;;;13.06;100.00;99278.51;639282;220;32703;-79
2021/05/16 07:05:19;;;;;;;3.47;1.60;;;;;;;12.80;99.49;99273.78;637212;225;23957;-79
2021/05/16 07:07:47;;;;;;;3.23;1.50;;;;;;;12.85;100.00;99270.16;644232;222;23846;-79
2021/05/16 07:10:15;;;;;;;4.43;1.70;;;;;;;12.96;99.56;99276.70;645948;221;24867;-80
2021/05/16 07:12:43;;;;;;;9.30;1.53;;;;;;;12.77;99.55;99269.75;630044;221;23895;-79
2021/05/16 07:15:12;;;;;;;3.73;1.40;;;;;;;12.71;100.00;99268.38;630818;225;24155;-79
2021/05/16 07:17:39;;;;;;;5.10;1.80;;;;;;;13.74;98.69;99272.47;629135;226;24865;-80
2021/05/16 07:20:08;;;;;;;5.47;2.00;;;;;;;14.40;94.99;99250.19;636234;224;24763;-80
2021/05/16 07:22:36;;;;;;;2.30;1.30;;;;;;;14.81;94.32;99251.52;646715;221;25111;-79
2021/05/16 07:25:05;;;;;;;2.90;1.30;;;;;;;14.48;92.19;99243.50;628345;225;26271;-79
2021/05/16 07:27:33;;;;;;;2.27;1.30;;;;;;;14.89;91.63;99250.52;638149;225;24889;-79
2021/05/16 07:30:01;;;;;;;6.93;1.50;;;;;;;15.09;90.81;99249.28;632994;225;24922;-79
2021/05/16 07:32:29;;;;;;;3.20;1.50;;;;;;;14.41;91.62;99257.03;629421;225;32837;-79
2021/05/16 07:34:57;;;;;;;8.20;2.60;;;;;;;14.25;91.25;99263.89;630280;225;23749;-80
2021/05/16 07:37:25;;;;;;;6.33;2.30;;;;;;;13.89;93.71;99261.42;630692;225;23894;-79
2021/05/16 07:39:53;;;;;;;3.50;1.50;;;;;;;13.65;95.01;99255.63;632373;225;24926;-79
2021/05/16 07:42:21;;;;;;;5.27;1.87;;;;;;;14.32;92.51;99246.91;626971;225;24872;-79
2021/05/16 07:44:49;;;;;;;5.00;1.70;;;;;;;14.91;91.27;99250.31;629145;225;24916;-79
2021/05/16 07:47:17;;;;;;;5.50;1.73;;;;;;;15.49;88.98;99243.60;640506;222;24847;-79
2021/05/16 07:49:45;;;;;;;8.17;1.70;;;;;;;15.42;86.41;99235.72;638612;220;24822;-78
2021/05/16 07:52:13;;;;;;;5.50;1.50;;;;;;;15.60;86.04;99238.27;644946;219;26029;-81
2021/05/16 07:54:41;;;;;;;7.00;1.90;;;;;;;15.80;86.01;99241.71;628667;224;32831;-79
2021/05/16 07:57:09;;;;;;;13.03;1.83;;;;;;;14.60;87.30;99244.27;638979;224;22732;-80
2021/05/16 07:59:38;;;;;;;7.20;2.13;;;;;;;14.24;91.39;99257.85;642387;221;24796;-79
2021/05/16 08:02:05;;;;;;;5.90;1.70;;;;;;;14.03;87.52;99242.72;645010;220;23841;-80
2021/05/16 08:04:33;;;;;;;6.80;2.17;;;;;;;14.15;87.75;99245.92;629795;224;23914;-80
2021/05/16 08:07:01;;;;;;;6.53;2.03;;;;;;;14.20;88.68;99247.95;644523;218;24854;-79
2021/05/16 08:09:29;;;;;;;5.23;1.50;;;;;;;14.30;87.83;99240.57;643008;220;26981;-79
2021/05/16 08:11:57;;;;;;;6.43;1.90;;;;;;;14.24;86.89;99246.09;632807;220;32531;-79
2021/05/16 08:14:27;;;;;;;4.83;2.00;;;;;;;14.20;87.27;99239.60;649103;221;24868;-79
2021/05/16 08:16:53;;;;;;;12.60;1.77;;;;;;;14.61;88.35;99242.76;639536;220;24809;-80
2021/05/16 08:19:21;;;;;;;5.40;1.50;;;;;;;14.83;86.89;99239.53;640258;220;24857;-80
2021/05/16 08:21:49;;;;;;;7.90;1.80;;;;;;;14.42;85.64;99231.18;632629;221;24928;-80
2021/05/16 08:24:17;;;;;;;9.17;1.70;;;;;;;14.19;88.05;99243.22;630641;225;24881;-80
2021/05/16 08:26:46;;;;;;;5.13;2.20;;;;;;;14.02;87.61;99237.98;643443;221;23868;-78
2021/05/16 08:29:13;;;;;;;4.60;2.10;;;;;;;14.45;87.69;99237.86;641176;220;24849;-79
2021/05/16 08:31:41;;;;;;;6.63;1.73;;;;;;;14.24;87.99;99236.93;641846;221;24901;-79
2021/05/16 08:34:08;;;;;;;12.67;2.10;;;;;;;14.61;86.73;99233.59;631169;225;24859;-80
2021/05/16 08:36:38;;;;;;;9.80;2.43;;;;;;;14.79;86.79;99238.31;643774;220;24871;-80
2021/05/16 08:39:05;;;;;;;6.10;1.80;;;;;;;14.97;83.63;99228.59;634158;225;24951;-80
2021/05/16 08:41:33;;;;;;;5.80;1.80;;;;;;;15.19;85.06;99227.92;645346;221;24801;-80
2021/05/16 08:44:01;;;;;;;6.30;1.97;;;;;;;15.83;81.93;99215.58;638664;225;23916;-78
2021/05/16 08:46:29;;;;;;;6.97;1.57;;;;;;;15.19;83.96;99214.83;630524;225;23855;-79
2021/05/16 08:48:57;;;;;;;5.17;1.80;;;;;;;15.45;83.52;99218.78;642601;220;24805;-80
2021/05/16 08:51:25;;;;;;;8.30;2.40;;;;;;;15.01;80.54;99200.50;643146;220;23820;-80
2021/05/16 08:53:54;;;;;;;9.95;2.58;;;;;;;15.41;82.82;99217.58;633913;220;32552;-79
2021/05/16 08:56:25;;;;;;;10.00;2.33;;;;;;;15.20;83.87;99219.05;646948;220;22753;-81
2021/05/16 08:58:53;;;;;;;9.80;2.50;;;;;;;14.83;83.10;99219.89;641017;220;23849;-78
2021/05/16 09:01:22;;;;;;;6.60;1.57;;;;;;;14.37;81.98;99221.80;637775;220;23835;-79
2021/05/16 09:03:49;;;;;;;11.50;2.03;;;;;;;13.99;86.75;99250.64;644842;220;23942;-80
2021/05/16 09:06:18;;;;;;;11.10;2.33;;;;;;;13.56;88.03;99248.91;638396;224;28041;-78
2021/05/16 09:08:46;;;;;;;8.33;1.90;;;;;;;13.28;88.95;99242.83;632318;226;23912;-80
2021/05/16 09:11:13;;;;;;;10.53;2.67;;;;;;;13.62;89.38;99245.53;637787;223;25078;-80
2021/05/16 09:13:45;;;;;;;8.67;2.07;;;;;;;13.68;89.24;99245.80;640086;221;24833;-79
2021/05/16 09:16:10;;;;;;;11.53;2.30;;;;;;;14.05;89.30;99250.67;633648;225;24889;-78
2021/05/16 09:18:41;;;;;;;14.27;2.23;;;;;;;14.27;88.14;99239.66;627622;225;24888;-79
2021/05/16 09:21:17;;;;;;;9.90;2.50;;;;;;;14.56;88.31;99243.86;631302;225;23896;-80
2021/05/16 09:23:43;;;;;;;7.77;2.53;;;;;;;14.42;89.37;99259.16;628758;226;24461;-76
2021/05/16 09:26:13;;;;;;;11.53;2.37;;;;;;;14.67;89.81;99253.77;626403;225;24020;-79
2021/05/16 09:28:41;;;;;;;5.50;1.83;;;;;;;13.73;87.05;99238.98;629804;225;23896;-79
2021/05/16 09:31:11;;;;;;;13.03;2.60;;;;;;;13.73;86.51;99234.27;643811;217;24834;-78
2021/05/16 09:33:39;;;;;;;7.13;1.70;;;;;;;13.74;86.48;99223.62;641652;220;32908;-81
2021/05/16 09:36:08;;;;;;;7.72;1.80;;;;;;;14.58;83.70;99212.25;635073;220;32909;-80
2021/05/16 09:38:36;;;;;;;4.17;2.03;;;;;;;15.38;81.61;99205.69;633062;226;22750;-81
2021/05/16 09:41:04;;;;;;;8.03;2.53;;;;;;;15.65;81.62;99202.59;636467;221;24867;-81
2021/05/16 09:43:32;;;;;;;7.63;1.70;;;;;;;16.30;81.12;99211.84;636407;225;23876;-80
2021/05/16 09:46:01;;;;;;;8.47;1.90;;;;;;;15.68;82.23;99215.30;631512;225;24187;-80
2021/05/16 09:48:30;;;;;;;9.47;2.10;;;;;;;16.14;80.32;99201.30;620952;229;24005;-81
2021/05/16 09:51:11;;;;;;;5.63;1.60;;;;;;;16.08;79.53;99200.02;627384;226;24936;-81
2021/05/16 09:54:06;;;;;;;6.73;1.77;;;;;;;16.01;78.19;99193.45;629184;225;24931;-81
2021/05/16 09:56:34;;;;;;;10.67;1.70;;;;;;;16.36;76.72;99179.53;631595;225;24869;-80
2021/05/16 09:59:03;;;;;;;11.77;2.20;;;;;;;16.56;75.18;99172.88;645703;220;24915;-80
2021/05/16 10:01:31;;;;;;;4.47;1.80;;;;;;;16.53;76.76;99175.42;644256;220;23879;-80
2021/05/16 10:03:59;;;;;;;11.27;3.30;;;;;;;16.53;73.39;99174.11;633911;225;23905;-80
2021/05/16 10:06:27;;;;;;;5.93;1.90;;;;;;;16.70;75.29;99173.64;640917;223;23863;-80
2021/05/16 10:08:55;;;;;;;8.03;2.10;;;;;;;16.74;75.77;99169.58;638718;223;23904;-77
2021/05/16 10:11:24;;;;;;;5.33;1.93;;;;;;;16.95;74.99;99166.63;639027;220;25113;-76
2021/05/16 10:13:57;;;;;;;6.73;1.80;;;;;;;17.29;75.26;99163.25;638871;223;23855;-81
2021/05/16 10:16:25;;;;;;;5.80;2.10;;;;;;;18.04;74.45;99162.69;638203;224;24803;-81
2021/05/16 10:18:53;;;;;;;9.10;1.60;;;;;;;17.70;72.90;99154.83;630591;224;23892;-81
2021/05/16 10:21:24;;;;;;;9.77;1.90;;;;;;;17.30;71.43;99150.40;632463;224;23900;-81
2021/05/16 10:24:02;;;;;;;10.60;2.10;;;;;;;16.98;74.38;99154.38;638389;224;23830;-81
2021/05/16 10:26:30;;;;;;;4.17;1.40;;;;;;;16.55;72.98;99147.13;634518;226;24894;-79
2021/05/16 10:28:59;;;;;;;9.37;2.40;;;;;;;16.68;73.67;99148.11;630941;225;23915;-81
2021/05/16 10:31:41;;;;;;;5.13;1.60;;;;;;;16.27;72.74;99146.66;629645;221;23898;-80
2021/05/16 10:34:39;;;;;;;5.80;1.40;;;;;;;15.98;70.46;99124.37;638928;220;23861;-75
2021/05/16 10:37:07;;;;;;;7.10;2.30;;;;;;;16.81;69.77;99132.28;637586;220;23828;-82
2021/05/16 10:39:52;;;;;;;6.85;1.90;;;;;;;16.51;71.18;99126.27;635765;220;32779;-80
2021/05/16 10:42:21;;;;;;;7.70;2.22;;;;;;;16.75;70.95;99125.23;635753;220;32785;-80
2021/05/16 10:50:41;;;;;;;4.80;1.83;;;;;;;16.90;68.34;99107.38;661143;214;23782;-82
2021/05/16 10:53:11;;;;;;;4.23;1.60;;;;;;;16.99;66.83;99097.39;663453;213;23792;-82
2021/05/16 10:55:40;;;;;;;11.70;2.00;;;;;;;16.70;67.79;99101.44;671417;213;27014;-82
2021/05/16 10:58:10;;;;;;;6.73;1.50;;;;;;;16.89;70.61;99099.17;671223;212;27926;-81
2021/05/16 11:00:41;;;;;;;9.30;1.80;;;;;;;17.38;70.02;99102.31;664636;213;25905;-82
2021/05/16 11:03:11;;;;;;;5.67;1.70;;;;;;;17.95;68.13;99094.27;659764;212;23836;-81
2021/05/16 11:05:50;;;;;;;5.70;1.73;;;;;;;18.59;65.71;99092.33;665518;213;23779;-82
2021/05/16 11:08:57;;;;;;;6.13;1.60;;;;;;;18.13;65.67;99074.50;662448;212;23810;-82
2021/05/16 11:11:28;;;;;;;4.63;1.40;;;;;;;17.79;64.76;99068.05;671659;213;23797;-81
2021/05/16 11:13:56;;;;;;;8.28;1.80;;;;;;;17.95;64.31;99060.06;662532;213;32390;-81
2021/05/16 11:16:24;;;;;;;6.17;2.23;;;;;;;17.95;65.05;99064.81;660501;213;22676;-82
2021/05/16 11:18:52;;;;;;;8.13;1.50;;;;;;;17.71;64.16;99048.09;674550;209;23734;-82
2021/05/16 11:21:20;;;;;;;5.60;1.63;;;;;;;17.39;66.88;99050.55;661007;213;23765;-83
2021/05/16 11:23:48;;;;;;;6.37;1.60;;;;;;;18.10;65.13;99048.64;663760;213;23810;-81
2021/05/16 11:26:16;;;;;;;6.43;2.00;;;;;;;18.66;63.72;99036.42;666524;213;23779;-80
2021/05/16 11:28:45;;;;;;;8.30;1.60;;;;;;;18.68;62.88;99023.02;662937;213;23907;-80
2021/05/16 11:31:17;;;;;;;6.20;1.93;;;;;;;18.90;62.23;99022.77;663722;213;24778;-80
2021/05/16 11:33:43;;;;;;;3.20;1.17;;;;;;;19.73;62.37;99021.68;660775;213;24745;-79
2021/05/16 11:36:12;;;;;;;6.60;1.70;;;;;;;19.76;60.31;99018.56;674786;212;23735;-80
2021/05/16 11:38:40;;;;;;;4.13;1.43;;;;;;;19.92;59.65;99010.42;672565;209;23734;-81
2021/05/16 11:41:08;;;;;;;7.23;2.10;;;;;;;18.71;61.54;99006.75;672909;213;23778;-82